createdAt,value
2019-03-11T00:01:29.026Z,5.40
2019-03-11T00:03:56.435Z,5.60
2019-03-11T00:06:22.639Z,5.60
2019-03-11T00:08:49.030Z,5.60
2019-03-11T00:11:15.286Z,5.60
2019-03-11T00:13:41.510Z,5.60
2019-03-11T00:16:07.711Z,5.50
2019-03-11T00:18:34.139Z,5.50
2019-03-11T00:21:00.330Z,5.40
2019-03-11T00:23:26.740Z,5.30
2019-03-11T00:25:52.970Z,5.20
2019-03-11T00:28:19.175Z,5.10
2019-03-11T00:30:45.371Z,5.10
2019-03-11T00:33:11.722Z,5.00
2019-03-11T00:35:37.921Z,5.00
2019-03-11T00:38:04.119Z,4.80
2019-03-11T00:40:30.350Z,4.60
2019-03-11T00:42:56.546Z,4.00
2019-03-11T00:45:24.331Z,3.50
2019-03-11T00:48:01.043Z,3.10
2019-03-11T00:50:19.015Z,3.00
2019-03-11T00:52:45.310Z,2.90
2019-03-11T00:55:14.531Z,2.80
2019-03-11T00:57:40.834Z,2.80
2019-03-11T01:00:22.446Z,2.90
2019-03-11T01:02:48.989Z,2.90
2019-03-11T01:05:15.181Z,3.00
2019-03-11T01:07:41.435Z,3.00
2019-03-11T01:10:08.794Z,3.00
2019-03-11T01:12:35.006Z,3.10
2019-03-11T01:15:01.562Z,3.10
2019-03-11T01:17:27.836Z,3.10
2019-03-11T01:19:54.092Z,3.10
2019-03-11T01:22:20.414Z,3.10
2019-03-11T01:24:46.619Z,3.10
2019-03-11T01:27:12.856Z,3.20
2019-03-11T01:29:39.184Z,3.20
2019-03-11T01:32:05.387Z,3.30
2019-03-11T01:34:31.595Z,3.20
2019-03-11T01:36:57.815Z,3.30
2019-03-11T01:39:24.027Z,3.30
2019-03-11T01:41:51.109Z,3.40
2019-03-11T01:44:17.311Z,3.50
2019-03-11T01:46:43.506Z,3.50
2019-03-11T01:49:09.743Z,3.60
2019-03-11T01:51:35.934Z,3.60
2019-03-11T01:54:02.130Z,3.70
2019-03-11T01:56:28.349Z,3.90
2019-03-11T01:58:57.099Z,4.00
2019-03-11T02:01:23.312Z,4.20
2019-03-11T02:03:49.543Z,4.20
2019-03-11T02:06:15.793Z,4.40
2019-03-11T02:08:42.071Z,4.40
2019-03-11T02:11:08.307Z,4.40
2019-03-11T02:13:34.498Z,4.40
2019-03-11T02:16:00.773Z,4.40
2019-03-11T02:18:27.004Z,4.50
2019-03-11T02:20:53.197Z,4.40
2019-03-11T02:23:19.394Z,4.50
2019-03-11T02:25:45.818Z,4.40
2019-03-11T02:28:12.018Z,4.40
2019-03-11T02:30:38.319Z,4.50
2019-03-11T02:33:04.551Z,4.50
2019-03-11T02:35:30.976Z,4.50
2019-03-11T02:37:57.567Z,4.50
2019-03-11T02:40:25.107Z,4.40
2019-03-11T02:42:51.341Z,4.30
2019-03-11T02:45:17.570Z,4.30
2019-03-11T02:47:43.800Z,4.20
2019-03-11T02:50:10.849Z,4.10
2019-03-11T02:52:37.044Z,4.10
2019-03-11T02:55:04.375Z,4.10
2019-03-11T02:57:30.575Z,4.10
2019-03-11T02:59:56.795Z,4.20
2019-03-11T03:02:24.932Z,4.20
2019-03-11T03:04:53.042Z,4.30
2019-03-11T03:07:19.328Z,4.20
2019-03-11T03:09:45.555Z,4.20
2019-03-11T03:12:11.777Z,4.20
2019-03-11T03:14:38.078Z,4.30
2019-03-11T03:17:04.331Z,4.30
2019-03-11T03:19:30.531Z,4.30
2019-03-11T03:21:56.745Z,4.30
2019-03-11T03:24:22.972Z,4.40
2019-03-11T03:26:52.145Z,4.30
2019-03-11T03:29:18.618Z,4.30
2019-03-11T03:31:44.965Z,4.30
2019-03-11T03:34:11.266Z,4.30
2019-03-11T03:36:37.550Z,4.30
2019-03-11T03:39:06.211Z,4.20
2019-03-11T03:41:58.664Z,4.30
2019-03-11T03:44:24.895Z,4.40
2019-03-11T03:46:51.094Z,4.40
2019-03-11T03:49:17.291Z,4.40
2019-03-11T03:51:43.524Z,4.40
2019-03-11T03:54:10.230Z,4.40
2019-03-11T03:56:36.436Z,4.40
2019-03-11T03:59:02.881Z,4.40
2019-03-11T04:01:29.495Z,4.40
2019-03-11T04:03:56.027Z,4.50
2019-03-11T04:06:22.256Z,4.50
2019-03-11T04:08:48.460Z,4.50
2019-03-11T04:11:14.762Z,4.50
2019-03-11T04:13:41.253Z,4.50
2019-03-11T04:16:07.592Z,4.50
2019-03-11T04:18:51.060Z,4.50
2019-03-11T04:21:17.380Z,4.50
2019-03-11T04:23:43.991Z,4.50
2019-03-11T04:26:16.057Z,4.50
2019-03-11T04:28:42.259Z,4.50
2019-03-11T04:31:08.463Z,4.50
2019-03-11T04:33:34.795Z,4.50
2019-03-11T04:36:00.995Z,4.40
2019-03-11T04:38:27.294Z,4.30
2019-03-11T04:40:53.517Z,4.30
2019-03-11T04:43:19.727Z,4.30
2019-03-11T04:45:45.923Z,4.30
2019-03-11T04:48:12.151Z,4.20
2019-03-11T04:50:38.342Z,3.30
2019-03-11T04:53:04.751Z,2.90
2019-03-11T04:55:30.970Z,2.40
2019-03-11T04:57:57.278Z,2.20
2019-03-11T05:00:39.315Z,2.20
2019-03-11T05:03:05.730Z,2.30
2019-03-11T05:05:32.115Z,2.30
2019-03-11T05:07:58.437Z,2.30
2019-03-11T05:10:25.148Z,2.30
2019-03-11T05:12:51.423Z,2.30
2019-03-11T05:15:17.638Z,2.30
2019-03-11T05:17:44.064Z,2.30
2019-03-11T05:20:14.395Z,2.40
2019-03-11T05:22:41.004Z,2.40
2019-03-11T05:25:09.332Z,2.50
2019-03-11T05:27:35.627Z,2.50
2019-03-11T05:30:04.850Z,2.70
2019-03-11T05:32:31.062Z,2.90
2019-03-11T05:34:57.259Z,3.00
2019-03-11T05:37:23.557Z,2.90
2019-03-11T05:39:49.855Z,2.90
2019-03-11T05:42:16.070Z,2.70
2019-03-11T05:44:42.279Z,2.70
2019-03-11T05:47:08.494Z,2.80
2019-03-11T05:49:34.693Z,2.80
2019-03-11T05:52:01.261Z,2.80
2019-03-11T05:54:27.515Z,2.80
2019-03-11T05:56:53.742Z,2.80
2019-03-11T05:59:19.947Z,2.80
2019-03-11T06:01:46.142Z,2.70
2019-03-11T06:04:12.383Z,2.50
2019-03-11T06:06:38.598Z,2.40
2019-03-11T06:09:05.105Z,2.40
2019-03-11T06:11:31.316Z,2.40
2019-03-11T06:13:57.547Z,2.50
2019-03-11T06:16:23.750Z,2.50
2019-03-11T06:18:50.971Z,2.60
2019-03-11T06:21:19.070Z,2.60
2019-03-11T06:23:45.291Z,2.70
2019-03-11T06:26:11.490Z,2.70
2019-03-11T06:28:37.766Z,2.80
2019-03-11T06:31:04.015Z,2.90
2019-03-11T06:33:30.243Z,3.00
2019-03-11T06:35:56.444Z,3.00
2019-03-11T06:38:22.652Z,3.10
2019-03-11T06:40:48.878Z,3.20
2019-03-11T06:43:15.066Z,3.30
2019-03-11T06:45:41.278Z,3.40
2019-03-11T06:48:07.488Z,3.40
2019-03-11T06:50:33.699Z,3.50
2019-03-11T06:52:59.906Z,3.50
2019-03-11T06:55:26.122Z,3.40
2019-03-11T06:57:52.328Z,3.40
2019-03-11T07:00:19.827Z,3.20
2019-03-11T07:03:04.275Z,3.20
2019-03-11T07:05:30.529Z,3.00
2019-03-11T07:07:56.742Z,2.90
2019-03-11T07:10:22.999Z,2.70
2019-03-11T07:12:49.257Z,2.60
2019-03-11T07:15:15.663Z,2.60
2019-03-11T07:17:42.183Z,2.50
2019-03-11T07:20:17.110Z,2.30
2019-03-11T07:22:43.430Z,2.20
2019-03-11T07:25:09.843Z,2.00
2019-03-11T07:27:36.150Z,1.90
2019-03-11T07:30:08.514Z,1.90
2019-03-11T07:32:34.746Z,1.90
2019-03-11T07:35:08.423Z,2.10
2019-03-11T07:37:29.203Z,2.20
2019-03-11T07:39:55.403Z,2.30
2019-03-11T07:42:21.675Z,2.40
2019-03-11T07:44:47.875Z,2.40
2019-03-11T07:47:14.066Z,2.50
2019-03-11T07:49:40.291Z,2.50
2019-03-11T07:52:06.605Z,2.60
2019-03-11T07:54:36.064Z,2.70
2019-03-11T07:57:01.035Z,2.60
2019-03-11T07:59:27.250Z,2.80
2019-03-11T08:01:53.455Z,3.10
2019-03-11T08:04:19.679Z,3.30
2019-03-11T08:06:45.887Z,3.40
2019-03-11T08:09:12.123Z,3.50
2019-03-11T08:11:38.330Z,3.50
2019-03-11T08:14:04.611Z,3.50
2019-03-11T08:16:31.050Z,3.40
2019-03-11T08:18:57.375Z,3.30
2019-03-11T08:21:23.606Z,3.30
2019-03-11T08:23:49.995Z,3.20
2019-03-11T08:26:16.219Z,3.10
2019-03-11T08:28:42.439Z,3.10
2019-03-11T08:31:08.634Z,2.90
2019-03-11T08:33:34.862Z,2.90
2019-03-11T08:36:01.067Z,2.80
2019-03-11T08:38:27.295Z,2.90
2019-03-11T08:40:53.550Z,3.10
2019-03-11T08:43:19.759Z,3.20
2019-03-11T08:45:46.083Z,3.30
2019-03-11T08:48:12.291Z,3.40
2019-03-11T08:50:38.511Z,3.70
2019-03-11T08:53:04.711Z,3.70
2019-03-11T08:55:31.085Z,3.60
2019-03-11T08:57:57.306Z,3.50
2019-03-11T09:00:23.726Z,3.40
2019-03-11T09:02:50.023Z,3.50
2019-03-11T09:05:16.467Z,3.60
2019-03-11T09:07:42.672Z,3.70
2019-03-11T09:10:13.166Z,3.70
2019-03-11T09:12:39.373Z,3.70
2019-03-11T09:15:08.789Z,3.60
2019-03-11T09:17:35.094Z,3.70
2019-03-11T09:20:01.303Z,3.80
2019-03-11T09:22:27.518Z,3.70
2019-03-11T09:24:53.722Z,3.80
2019-03-11T09:27:20.155Z,3.80
2019-03-11T09:29:46.356Z,3.90
2019-03-11T09:32:12.570Z,4.10
2019-03-11T09:34:38.774Z,4.30
2019-03-11T09:37:05.098Z,4.50
2019-03-11T09:39:31.302Z,4.80
2019-03-11T09:41:57.554Z,4.90
2019-03-11T09:44:23.772Z,4.80
2019-03-11T09:46:50.001Z,4.80
2019-03-11T09:49:16.303Z,4.80
2019-03-11T09:51:42.626Z,4.80
2019-03-11T09:54:08.835Z,4.80
2019-03-11T09:56:42.870Z,4.80
2019-03-11T09:59:03.188Z,4.90
2019-03-11T10:01:29.499Z,4.90
2019-03-11T10:03:55.700Z,4.80
2019-03-11T10:06:21.913Z,4.90
2019-03-11T10:08:48.122Z,5.10
2019-03-11T10:11:14.351Z,5.30
2019-03-11T10:13:40.571Z,5.40
2019-03-11T10:16:08.695Z,5.50
2019-03-11T10:18:35.019Z,5.90
2019-03-11T10:21:01.308Z,6.00
2019-03-11T10:23:32.083Z,6.10
2019-03-11T10:25:55.970Z,5.80
2019-03-11T10:28:22.327Z,5.50
2019-03-11T10:30:48.518Z,5.40
2019-03-11T10:33:15.363Z,5.40
2019-03-11T10:35:41.566Z,5.50
2019-03-11T10:38:08.003Z,5.80
2019-03-11T10:40:34.193Z,6.20
2019-03-11T10:43:00.419Z,6.20
2019-03-11T10:45:31.854Z,6.30
2019-03-11T10:47:55.146Z,6.30
2019-03-11T10:50:21.362Z,6.20
2019-03-11T10:52:47.767Z,6.30
2019-03-11T10:55:16.596Z,6.60
2019-03-11T10:57:43.310Z,6.40
2019-03-11T11:00:28.734Z,6.40
2019-03-11T11:02:55.147Z,6.50
2019-03-11T11:05:21.666Z,6.60
2019-03-11T11:07:48.175Z,6.40
2019-03-11T11:10:15.354Z,6.30
2019-03-11T11:12:41.655Z,6.30
2019-03-11T11:15:16.218Z,6.30
2019-03-11T11:17:42.424Z,6.40
2019-03-11T11:20:11.774Z,6.60
2019-03-11T11:22:38.174Z,6.60
2019-03-11T11:25:07.294Z,6.70
2019-03-11T11:27:33.603Z,7.10
2019-03-11T11:29:59.818Z,7.40
2019-03-11T11:32:26.027Z,7.20
2019-03-11T11:34:52.247Z,7.20
2019-03-11T11:37:18.451Z,7.10
2019-03-11T11:39:44.666Z,7.20
2019-03-11T11:42:10.879Z,7.00
2019-03-11T11:44:37.090Z,6.80
2019-03-11T11:47:03.398Z,6.80
2019-03-11T11:49:29.614Z,7.00
2019-03-11T11:51:55.819Z,7.20
2019-03-11T11:54:22.042Z,7.50
2019-03-11T11:56:48.246Z,7.70
2019-03-11T11:59:14.467Z,7.80
2019-03-11T12:02:03.210Z,7.90
2019-03-11T12:04:23.195Z,8.00
2019-03-11T12:06:49.701Z,8.10
2019-03-11T12:09:15.912Z,8.30
2019-03-11T12:11:42.138Z,8.40
2019-03-11T12:14:08.338Z,8.40
2019-03-11T12:16:34.558Z,8.00
2019-03-11T12:19:00.762Z,8.10
2019-03-11T12:21:27.290Z,8.30
2019-03-11T12:23:53.486Z,8.60
2019-03-11T12:26:19.702Z,8.20
2019-03-11T12:28:45.898Z,8.10
2019-03-11T12:31:12.224Z,7.90
2019-03-11T12:33:38.415Z,7.70
2019-03-11T12:36:05.043Z,7.90
2019-03-11T12:38:31.238Z,8.40
2019-03-11T12:40:57.479Z,8.30
2019-03-11T12:43:23.674Z,8.00
2019-03-11T12:45:49.897Z,7.80
2019-03-11T12:48:16.206Z,7.90
2019-03-11T12:50:42.411Z,8.10
2019-03-11T12:53:08.626Z,8.10
2019-03-11T12:55:34.834Z,7.90
2019-03-11T12:58:01.090Z,8.20
2019-03-11T13:00:27.495Z,8.30
2019-03-11T13:02:53.833Z,8.10
2019-03-11T13:05:20.134Z,7.70
2019-03-11T13:07:46.672Z,7.40
2019-03-11T13:10:22.858Z,7.10
2019-03-11T13:12:49.395Z,7.00
2019-03-11T13:15:16.207Z,7.10
2019-03-11T13:17:42.698Z,7.30
2019-03-11T13:20:12.407Z,7.20
2019-03-11T13:22:38.622Z,7.20
2019-03-11T13:25:06.750Z,7.10
2019-03-11T13:27:32.966Z,7.00
2019-03-11T13:29:59.238Z,7.20
2019-03-11T13:32:27.175Z,7.60
2019-03-11T13:34:53.671Z,8.10
2019-03-11T13:37:19.971Z,8.60
2019-03-11T13:39:46.175Z,8.70
2019-03-11T13:42:12.399Z,8.70
2019-03-11T13:44:38.603Z,8.50
2019-03-11T13:47:04.927Z,8.10
2019-03-11T13:49:31.134Z,7.80
2019-03-11T13:51:57.357Z,7.50
2019-03-11T13:54:23.564Z,7.50
2019-03-11T13:56:49.986Z,7.30
2019-03-11T13:59:16.186Z,7.40
2019-03-11T14:01:42.488Z,7.60
2019-03-11T14:04:08.788Z,7.70
2019-03-11T14:06:35.013Z,7.70
2019-03-11T14:09:01.327Z,8.10
2019-03-11T14:11:27.542Z,8.80
2019-03-11T14:13:53.767Z,9.30
2019-03-11T14:16:19.954Z,9.40
2019-03-11T14:18:46.184Z,9.50
2019-03-11T14:21:12.426Z,9.80
2019-03-11T14:23:38.652Z,10.50
2019-03-11T14:26:04.890Z,10.50
2019-03-11T14:28:31.107Z,10.60
2019-03-11T14:30:57.306Z,10.30
2019-03-11T14:33:23.635Z,9.70
2019-03-11T14:35:52.107Z,10.50
2019-03-11T14:38:17.968Z,10.50
2019-03-11T14:40:44.182Z,11.10
2019-03-11T14:43:10.395Z,10.70
2019-03-11T14:45:36.594Z,11.20
2019-03-11T14:48:03.736Z,12.50
2019-03-11T14:50:29.960Z,13.40
2019-03-11T14:52:56.162Z,11.70
2019-03-11T14:55:22.394Z,11.50
2019-03-11T14:57:48.582Z,11.00
2019-03-11T15:00:18.971Z,9.90
2019-03-11T15:02:45.486Z,9.40
2019-03-11T15:05:11.898Z,9.10
2019-03-11T15:07:38.214Z,9.00
2019-03-11T15:10:07.838Z,9.40
2019-03-11T15:12:34.144Z,11.70
2019-03-11T15:15:00.368Z,13.20
2019-03-11T15:17:26.571Z,12.60
2019-03-11T15:19:52.791Z,11.70
2019-03-11T15:22:18.999Z,10.80
2019-03-11T15:24:45.314Z,11.80
2019-03-11T15:27:12.147Z,13.00
2019-03-11T15:29:38.567Z,12.70
2019-03-11T15:32:04.777Z,11.30
2019-03-11T15:34:30.999Z,10.00
2019-03-11T15:36:57.326Z,9.40
2019-03-11T15:39:23.563Z,9.40
2019-03-11T15:41:49.774Z,9.10
2019-03-11T15:44:15.982Z,9.60
2019-03-11T15:47:02.255Z,10.40
2019-03-11T15:49:28.690Z,11.30
2019-03-11T15:51:55.186Z,10.20
2019-03-11T15:54:21.386Z,10.20
2019-03-11T15:56:47.628Z,10.10
2019-03-11T15:59:13.966Z,9.50
2019-03-11T16:01:40.180Z,9.30
2019-03-11T16:04:06.387Z,8.90
2019-03-11T16:06:32.594Z,8.40
2019-03-11T16:08:58.915Z,8.20
2019-03-11T16:11:25.135Z,8.20
2019-03-11T16:13:51.386Z,8.00
2019-03-11T16:16:17.658Z,7.90
2019-03-11T16:18:44.395Z,7.90
2019-03-11T16:21:10.699Z,8.50
2019-03-11T16:23:37.031Z,8.40
2019-03-11T16:26:19.707Z,8.10
2019-03-11T16:28:48.267Z,7.80
2019-03-11T16:31:14.691Z,7.60
2019-03-11T16:33:41.217Z,7.60
2019-03-11T16:36:07.617Z,7.80
2019-03-11T16:38:34.277Z,8.80
2019-03-11T16:41:00.567Z,9.40
2019-03-11T16:43:27.219Z,9.50
2019-03-11T16:45:53.623Z,9.60
2019-03-11T16:48:19.958Z,9.50
2019-03-11T16:50:46.187Z,8.70
2019-03-11T16:53:12.546Z,8.20
2019-03-11T16:55:46.509Z,7.80
2019-03-11T16:58:12.843Z,7.40
2019-03-11T17:00:40.962Z,7.10
2019-03-11T17:03:07.976Z,7.00
2019-03-11T17:05:34.471Z,6.80
2019-03-11T17:08:01.206Z,6.70
2019-03-11T17:10:27.467Z,6.70
2019-03-11T17:12:53.662Z,6.70
2019-03-11T17:15:21.636Z,6.70
2019-03-11T17:17:48.142Z,6.70
2019-03-11T17:20:16.123Z,6.80
2019-03-11T17:22:42.417Z,6.80
2019-03-11T17:25:10.842Z,6.80
2019-03-11T17:27:37.171Z,6.90
2019-03-11T17:30:07.188Z,6.80
2019-03-11T17:32:33.389Z,6.80
2019-03-11T17:34:59.612Z,6.80
2019-03-11T17:37:25.916Z,6.70
2019-03-11T17:39:52.386Z,6.70
2019-03-11T17:42:18.887Z,6.60
2019-03-11T17:44:45.119Z,6.60
2019-03-11T17:47:11.414Z,6.50
2019-03-11T17:49:37.631Z,6.40
2019-03-11T17:52:03.859Z,6.40
2019-03-11T17:54:30.121Z,6.30
2019-03-11T17:56:56.335Z,6.30
2019-03-11T17:59:22.534Z,6.30
2019-03-11T18:01:48.856Z,6.30
2019-03-11T18:04:15.162Z,6.30
2019-03-11T18:06:41.387Z,6.30
2019-03-11T18:09:07.786Z,6.30
2019-03-11T18:11:34.161Z,6.20
2019-03-11T18:14:00.361Z,6.20
2019-03-11T18:16:26.664Z,6.20
2019-03-11T18:18:54.769Z,6.20
2019-03-11T18:21:21.359Z,6.20
2019-03-11T18:23:47.678Z,6.20
2019-03-11T18:26:14.020Z,6.20
2019-03-11T18:28:40.321Z,6.20
2019-03-11T18:31:06.642Z,6.10
2019-03-11T18:33:32.963Z,6.10
2019-03-11T18:35:59.254Z,6.00
2019-03-11T18:38:25.490Z,6.00
2019-03-11T18:40:54.235Z,6.10
2019-03-11T18:43:21.107Z,6.00
2019-03-11T18:45:47.578Z,6.10
2019-03-11T18:48:13.822Z,6.00
2019-03-11T18:50:40.131Z,6.10
2019-03-11T18:53:06.646Z,6.00
2019-03-11T18:55:32.966Z,5.90
2019-03-11T18:57:59.515Z,5.90
2019-03-11T19:00:25.741Z,5.90
2019-03-11T19:02:52.061Z,5.90
2019-03-11T19:05:19.880Z,5.80
2019-03-11T19:07:46.317Z,5.80
2019-03-11T19:10:16.128Z,5.80
2019-03-11T19:12:42.472Z,5.70
2019-03-11T19:15:14.361Z,5.70
2019-03-11T19:17:58.800Z,5.70
2019-03-11T19:20:25.315Z,5.70
2019-03-11T19:22:52.027Z,5.70
2019-03-11T19:25:18.257Z,5.70
2019-03-11T19:27:44.777Z,5.60
2019-03-11T19:30:19.826Z,5.60
2019-03-11T19:33:04.651Z,5.60
2019-03-11T19:35:30.972Z,5.60
2019-03-11T19:37:57.682Z,5.60
2019-03-11T19:40:25.606Z,5.70
2019-03-11T19:42:52.459Z,5.70
2019-03-11T19:45:18.926Z,5.70
2019-03-11T19:47:45.352Z,5.70
2019-03-11T19:50:13.665Z,5.60
2019-03-11T19:52:40.166Z,5.60
2019-03-11T19:55:06.814Z,5.60
2019-03-11T19:57:33.145Z,5.50
2019-03-11T19:59:59.650Z,5.40
2019-03-11T20:02:26.010Z,5.40
2019-03-11T20:04:52.292Z,5.40
2019-03-11T20:07:18.583Z,5.40
2019-03-11T20:09:45.244Z,5.40
2019-03-11T20:12:11.718Z,5.40
2019-03-11T20:14:38.394Z,5.40
2019-03-11T20:17:04.864Z,5.30
2019-03-11T20:19:31.167Z,5.30
2019-03-11T20:21:57.537Z,5.20
2019-03-11T20:24:24.283Z,5.20
2019-03-11T20:26:50.626Z,5.20
2019-03-11T20:29:17.045Z,5.20
2019-03-11T20:31:43.251Z,5.20
2019-03-11T20:34:09.538Z,5.20
2019-03-11T20:36:35.863Z,5.10
2019-03-11T20:39:04.874Z,5.10
2019-03-11T20:41:31.135Z,5.10
2019-03-11T20:43:57.417Z,5.10
2019-03-11T20:46:23.737Z,5.10
2019-03-11T20:48:50.002Z,5.10
2019-03-11T20:51:16.309Z,5.10
2019-03-11T20:53:43.068Z,5.00
2019-03-11T20:56:09.271Z,5.00
2019-03-11T20:58:35.521Z,5.00
2019-03-11T21:01:02.553Z,4.90
2019-03-11T21:03:28.961Z,5.00
2019-03-11T21:06:01.592Z,4.90
2019-03-11T21:08:27.976Z,5.00
2019-03-11T21:10:54.271Z,4.90
2019-03-11T21:13:20.589Z,4.90
2019-03-11T21:15:46.806Z,4.90
2019-03-11T21:18:13.209Z,4.90
2019-03-11T21:20:39.439Z,4.90
2019-03-11T21:23:06.107Z,4.90
2019-03-11T21:25:32.587Z,4.80
2019-03-11T21:27:58.865Z,4.80
2019-03-11T21:30:25.756Z,4.80
2019-03-11T21:32:52.505Z,4.80
2019-03-11T21:35:19.581Z,4.80
2019-03-11T21:37:45.942Z,4.80
2019-03-11T21:40:14.340Z,4.70
2019-03-11T21:42:40.773Z,4.70
2019-03-11T21:45:09.947Z,4.80
2019-03-11T21:47:56.112Z,4.70
2019-03-11T21:50:26.311Z,4.70
2019-03-11T21:52:52.886Z,4.70
2019-03-11T21:55:19.230Z,4.60
2019-03-11T21:57:45.797Z,4.60
2019-03-11T22:00:33.852Z,4.60
2019-03-11T22:02:51.686Z,4.60
2019-03-11T22:05:18.238Z,4.60
2019-03-11T22:07:44.538Z,4.60
2019-03-11T22:10:13.178Z,4.60
2019-03-11T22:12:39.406Z,4.60
2019-03-11T22:15:08.843Z,4.60
2019-03-11T22:17:35.693Z,4.60
2019-03-11T22:20:04.970Z,4.50
2019-03-11T22:22:31.179Z,4.60
2019-03-11T22:24:57.405Z,4.50
2019-03-11T22:27:23.611Z,4.50
2019-03-11T22:29:49.820Z,4.50
2019-03-11T22:32:16.030Z,4.40
2019-03-11T22:34:42.257Z,4.40
2019-03-11T22:37:08.611Z,4.30
2019-03-11T22:39:34.810Z,4.20
2019-03-11T22:42:01.029Z,4.30
2019-03-11T22:44:27.231Z,4.20
2019-03-11T22:46:53.455Z,4.10
2019-03-11T22:49:19.667Z,4.10
2019-03-11T22:51:45.915Z,4.10
2019-03-11T22:54:12.118Z,4.00
2019-03-11T22:56:38.335Z,3.90
2019-03-11T22:59:04.539Z,3.90
2019-03-11T23:01:31.070Z,3.90
2019-03-11T23:03:57.262Z,4.00
2019-03-11T23:06:23.488Z,4.00
2019-03-11T23:08:49.803Z,4.10
2019-03-11T23:11:16.070Z,4.10
2019-03-11T23:13:42.519Z,4.10
2019-03-11T23:16:08.714Z,4.20
2019-03-11T23:18:34.938Z,4.20
2019-03-11T23:21:01.139Z,4.20
2019-03-11T23:23:27.353Z,4.30
2019-03-11T23:25:53.566Z,4.30
2019-03-11T23:28:19.790Z,4.20
2019-03-11T23:30:46.219Z,4.30
2019-03-11T23:33:12.443Z,4.30
2019-03-11T23:35:38.751Z,4.30
2019-03-11T23:38:05.070Z,4.20
2019-03-11T23:40:31.275Z,4.10
2019-03-11T23:42:57.490Z,4.10
2019-03-11T23:45:23.695Z,3.90
2019-03-11T23:47:50.135Z,3.80
2019-03-11T23:50:19.216Z,3.70
2019-03-11T23:52:44.447Z,3.70
2019-03-11T23:55:11.262Z,3.60
2019-03-11T23:57:37.470Z,3.60
